Time;durP1;ratioP1;P1;durP2;ratioP2;P2;SDS_P1;SDS_P2;PMS_P1;PMS_P2;Temp;Humidity;BMP_temperature;BMP_pressure;BME280_temperature;BME280_humidity;BME280_pressure;Samples;Min_cycle;Max_cycle;Signal;HPM_P1;HPM_P2
2022/08/28 00:02:22;;;;;;;15.38;5.05;;;14.10;99.90;;;;;;4991031;28;20432;-73
2022/08/28 00:04:49;;;;;;;12.77;4.88;;;14.10;99.90;;;;;;4990495;28;20587;-73
2022/08/28 00:07:14;;;;;;;9.38;4.63;;;14.10;99.90;;;;;;5005206;28;20053;-72
2022/08/28 00:09:40;;;;;;;9.68;3.97;;;14.10;99.90;;;;;;4989479;28;20785;-72
2022/08/28 00:12:07;;;;;;;12.30;4.50;;;14.10;99.90;;;;;;4997748;28;20505;-72
2022/08/28 00:14:35;;;;;;;13.85;4.55;;;14.10;99.90;;;;;;4991476;28;20440;-72
2022/08/28 00:17:02;;;;;;;11.85;4.50;;;14.10;99.90;;;;;;4987532;28;20049;-72
2022/08/28 00:19:28;;;;;;;11.50;4.60;;;14.10;99.90;;;;;;4986580;28;20436;-72
2022/08/28 00:21:54;;;;;;;13.77;4.10;;;14.10;99.90;;;;;;5009977;28;20044;-72
2022/08/28 00:24:20;;;;;;;12.48;4.57;;;14.10;99.90;;;;;;4993270;28;20136;-72
2022/08/28 00:29:31;;;;;;;14.75;4.93;;;14.10;99.90;;;;;;4985924;28;20066;-72
2022/08/28 00:31:57;;;;;;;11.32;4.57;;;14.10;99.90;;;;;;4990221;28;20143;-72
2022/08/28 00:34:23;;;;;;;11.90;4.55;;;14.10;99.90;;;;;;4992678;28;20045;-72
2022/08/28 00:36:48;;;;;;;12.73;4.47;;;14.10;99.90;;;;;;4991354;28;20069;-72
2022/08/28 00:39:14;;;;;;;13.05;4.50;;;14.00;99.90;;;;;;4980052;28;20053;-73
2022/08/28 00:41:40;;;;;;;11.35;4.60;;;14.00;99.90;;;;;;5008289;28;20045;-73
2022/08/28 00:44:16;;;;;;;9.85;4.30;;;14.00;99.90;;;;;;4990774;28;20034;-72
2022/08/28 00:46:45;;;;;;;13.00;4.93;;;14.00;99.90;;;;;;4988289;28;20050;-72
2022/08/28 00:49:12;;;;;;;8.93;4.55;;;14.00;99.90;;;;;;4988482;28;20133;-72
2022/08/28 00:54:25;;;;;;;13.38;4.82;;;13.90;99.90;;;;;;4992753;28;20042;-72
2022/08/28 00:56:53;;;;;;;13.57;4.68;;;13.90;99.90;;;;;;4977848;28;20045;-72
2022/08/28 00:59:22;;;;;;;11.85;4.75;;;13.80;99.90;;;;;;4990010;28;20042;-72
2022/08/28 01:01:49;;;;;;;13.32;5.15;;;13.80;99.90;;;;;;5010122;28;20173;-72
2022/08/28 01:04:17;;;;;;;10.68;4.45;;;13.80;99.90;;;;;;5002559;28;20041;-72
2022/08/28 01:06:47;;;;;;;11.63;4.45;;;13.80;99.90;;;;;;4980644;28;20068;-72
2022/08/28 01:09:14;;;;;;;14.48;4.53;;;13.70;99.90;;;;;;4989171;28;20060;-72
2022/08/28 01:11:46;;;;;;;9.85;4.93;;;13.70;99.90;;;;;;5007234;28;20053;-72
2022/08/28 01:14:14;;;;;;;12.15;4.43;;;13.70;99.90;;;;;;4990896;28;20113;-73
2022/08/28 01:16:42;;;;;;;11.90;4.68;;;13.70;99.90;;;;;;4990972;28;20145;-72
2022/08/28 01:19:16;;;;;;;13.57;4.40;;;13.70;99.90;;;;;;4995166;28;20076;-72
2022/08/28 01:21:57;;;;;;;10.45;4.57;;;13.60;99.90;;;;;;4991197;28;20041;-72
2022/08/28 01:24:23;;;;;;;8.70;4.22;;;13.60;99.90;;;;;;4991309;28;20077;-72
2022/08/28 01:26:49;;;;;;;9.63;4.53;;;13.60;99.90;;;;;;4990821;28;20038;-72
2022/08/28 01:29:15;;;;;;;10.73;4.40;;;13.50;99.90;;;;;;5011235;28;20117;-72
2022/08/28 01:31:41;;;;;;;8.35;4.07;;;13.50;99.90;;;;;;4991460;28;20767;-72
2022/08/28 01:34:10;;;;;;;12.40;4.75;;;13.50;99.90;;;;;;4988998;28;20049;-72
2022/08/28 01:36:36;;;;;;;8.57;4.13;;;13.50;99.90;;;;;;4991573;28;20056;-72
2022/08/28 01:39:08;;;;;;;7.45;4.13;;;13.40;99.90;;;;;;4989238;28;20493;-72
2022/08/28 01:41:36;;;;;;;9.65;4.28;;;13.40;99.90;;;;;;4990940;28;20065;-72
2022/08/28 01:44:02;;;;;;;11.00;4.22;;;13.40;99.90;;;;;;5008656;28;20041;-73
2022/08/28 01:46:30;;;;;;;8.48;4.50;;;13.30;99.90;;;;;;4991616;28;20041;-72
2022/08/28 01:48:56;;;;;;;11.32;4.20;;;13.30;99.90;;;;;;4990985;28;20087;-72
2022/08/28 01:51:21;;;;;;;12.80;4.30;;;13.30;99.90;;;;;;4992468;28;20960;-72
2022/08/28 01:53:47;;;;;;;10.48;4.68;;;13.30;99.90;;;;;;4989401;28;20045;-72
2022/08/28 01:56:15;;;;;;;10.18;4.32;;;13.30;99.90;;;;;;4989928;28;20640;-72
2022/08/28 01:58:41;;;;;;;9.18;4.57;;;13.30;99.90;;;;;;4989441;28;20038;-72
2022/08/28 02:01:11;;;;;;;9.50;4.40;;;13.30;99.90;;;;;;4974885;28;20594;-72
2022/08/28 02:03:37;;;;;;;9.75;3.88;;;13.30;99.90;;;;;;4988933;28;20038;-72
2022/08/28 02:06:03;;;;;;;10.05;4.03;;;13.30;99.90;;;;;;5006513;28;20048;-72
2022/08/28 02:08:29;;;;;;;9.70;4.18;;;13.20;99.90;;;;;;4992070;28;20041;-72
2022/08/28 02:10:54;;;;;;;10.13;4.43;;;13.30;99.90;;;;;;4991327;28;21433;-72
2022/08/28 02:13:21;;;;;;;8.50;3.92;;;13.30;99.90;;;;;;4990886;28;20117;-72
2022/08/28 02:15:47;;;;;;;12.70;3.80;;;13.20;99.90;;;;;;5010303;28;20129;-72
2022/08/28 02:18:14;;;;;;;6.03;3.80;;;13.20;99.90;;;;;;4993963;28;20065;-72
2022/08/28 02:20:41;;;;;;;9.65;3.65;;;13.20;99.90;;;;;;5008889;28;20033;-72
2022/08/28 02:23:07;;;;;;;9.68;3.88;;;13.20;99.90;;;;;;4990490;28;20060;-72
2022/08/28 02:25:33;;;;;;;8.80;3.55;;;13.20;99.90;;;;;;5003459;28;20038;-72
2022/08/28 02:27:59;;;;;;;10.10;4.03;;;13.20;99.90;;;;;;4974483;28;20489;-72
2022/08/28 02:30:25;;;;;;;10.77;3.83;;;13.20;99.90;;;;;;5004779;28;20049;-72
2022/08/28 02:32:51;;;;;;;10.18;4.28;;;13.20;99.90;;;;;;4986152;28;20436;-72
2022/08/28 02:35:18;;;;;;;8.40;3.72;;;13.20;99.90;;;;;;5001416;28;20053;-72
2022/08/28 02:37:44;;;;;;;12.65;4.05;;;13.20;99.90;;;;;;4988040;28;20069;-72
2022/08/28 02:40:15;;;;;;;8.90;4.38;;;13.20;99.90;;;;;;4998878;28;20076;-72
2022/08/28 02:42:42;;;;;;;8.65;3.92;;;13.20;99.90;;;;;;4985608;28;20042;-72
2022/08/28 02:45:10;;;;;;;12.32;3.75;;;13.20;99.90;;;;;;4984097;28;20057;-73
2022/08/28 02:47:38;;;;;;;9.77;4.13;;;13.20;99.90;;;;;;4986256;28;20071;-72
2022/08/28 02:50:06;;;;;;;11.55;4.10;;;13.20;99.90;;;;;;4990157;28;20041;-72
2022/08/28 02:52:34;;;;;;;9.25;3.85;;;13.20;99.90;;;;;;4988682;28;20030;-72
2022/08/28 02:54:59;;;;;;;13.23;4.38;;;13.20;99.90;;;;;;4994452;28;20045;-72
2022/08/28 02:57:26;;;;;;;10.80;4.07;;;13.10;99.90;;;;;;4990769;28;20049;-72
2022/08/28 02:59:52;;;;;;;9.20;4.13;;;13.10;99.90;;;;;;4975818;28;20053;-72
2022/08/28 03:02:17;;;;;;;10.00;3.97;;;13.10;99.90;;;;;;4991056;28;20042;-72
2022/08/28 03:04:43;;;;;;;8.07;3.65;;;13.10;99.90;;;;;;4989800;28;20052;-72
2022/08/28 03:07:12;;;;;;;8.60;3.42;;;13.00;99.90;;;;;;5009977;28;20045;-72
2022/08/28 03:09:40;;;;;;;7.18;3.28;;;12.90;99.90;;;;;;4992894;28;20045;-72
2022/08/28 03:12:07;;;;;;;9.43;3.88;;;13.00;99.90;;;;;;5008998;28;20392;-72
2022/08/28 03:14:32;;;;;;;7.85;3.58;;;12.90;99.90;;;;;;5010180;28;20428;-72
2022/08/28 03:17:00;;;;;;;9.02;3.85;;;12.90;99.90;;;;;;4992799;28;20045;-72
2022/08/28 03:19:26;;;;;;;8.50;3.50;;;12.90;99.90;;;;;;4996975;28;20502;-72
2022/08/28 03:21:52;;;;;;;6.03;3.53;;;12.90;99.90;;;;;;4993291;28;20042;-72
2022/08/28 03:24:18;;;;;;;7.80;3.50;;;12.90;99.90;;;;;;4990242;28;20379;-72
2022/08/28 03:26:44;;;;;;;10.10;3.60;;;12.80;99.90;;;;;;4998235;28;20048;-72
2022/08/28 03:29:09;;;;;;;8.30;3.83;;;12.80;99.90;;;;;;5010787;28;20513;-72
2022/08/28 03:31:37;;;;;;;9.52;3.67;;;12.80;99.90;;;;;;5012172;28;20064;-72
2022/08/28 03:34:04;;;;;;;6.90;2.92;;;12.80;99.90;;;;;;4993110;28;20030;-72
2022/08/28 03:36:30;;;;;;;7.80;3.45;;;12.80;99.90;;;;;;4997417;28;20987;-72
2022/08/28 03:39:00;;;;;;;8.07;3.28;;;12.70;99.90;;;;;;4992952;28;20426;-72
2022/08/28 03:41:28;;;;;;;6.03;3.08;;;12.70;99.90;;;;;;5010873;28;20579;-72
2022/08/28 03:43:56;;;;;;;7.70;3.17;;;12.60;99.90;;;;;;4991905;28;20038;-72
2022/08/28 03:46:22;;;;;;;7.93;3.38;;;12.60;99.90;;;;;;5012868;28;20370;-72
2022/08/28 03:48:49;;;;;;;11.25;3.40;;;12.60;99.90;;;;;;4992182;28;20150;-72
2022/08/28 03:51:20;;;;;;;8.38;3.70;;;12.60;99.90;;;;;;4994886;28;20580;-72
2022/08/28 03:53:46;;;;;;;10.02;3.97;;;12.60;99.90;;;;;;4992848;28;20038;-72
2022/08/28 03:56:20;;;;;;;6.60;3.58;;;12.60;99.90;;;;;;5008793;28;20461;-72
2022/08/28 03:58:50;;;;;;;9.60;3.90;;;12.60;99.90;;;;;;4992320;28;20049;-72
2022/08/28 04:01:17;;;;;;;6.38;3.13;;;12.60;99.90;;;;;;4989506;28;20056;-72
2022/08/28 04:03:44;;;;;;;9.88;3.60;;;12.50;99.90;;;;;;4992767;28;20126;-72
2022/08/28 04:06:09;;;;;;;6.32;3.85;;;12.50;99.90;;;;;;5011352;28;20147;-72
2022/08/28 04:08:36;;;;;;;11.23;3.67;;;12.50;99.90;;;;;;4991073;28;20073;-72
2022/08/28 04:11:02;;;;;;;9.10;3.70;;;12.50;99.90;;;;;;4989396;28;20382;-72
2022/08/28 04:13:28;;;;;;;10.50;3.67;;;12.40;99.90;;;;;;4991335;28;20056;-72
2022/08/28 04:16:01;;;;;;;10.07;3.80;;;12.40;99.90;;;;;;4989560;28;20246;-72
2022/08/28 04:18:27;;;;;;;11.82;3.75;;;12.40;99.90;;;;;;4989050;28;20038;-72
2022/08/28 04:21:06;;;;;;;10.13;3.70;;;12.40;99.90;;;;;;4995054;28;20516;-72
2022/08/28 04:23:34;;;;;;;9.07;3.65;;;12.40;99.90;;;;;;4971402;28;20065;-72
2022/08/28 04:25:59;;;;;;;8.65;3.63;;;12.40;99.90;;;;;;4992102;28;20042;-72
2022/08/28 04:28:26;;;;;;;8.45;3.85;;;12.40;99.90;;;;;;5008421;28;20048;-72
2022/08/28 04:30:53;;;;;;;9.38;3.40;;;12.40;99.90;;;;;;4991033;28;20042;-72
2022/08/28 04:33:23;;;;;;;10.18;3.67;;;12.30;99.90;;;;;;4988542;28;20037;-72
2022/08/28 04:35:49;;;;;;;10.15;3.30;;;12.30;99.90;;;;;;4991196;28;20042;-72
2022/08/28 04:38:15;;;;;;;8.13;3.00;;;12.30;99.90;;;;;;5011657;28;20530;-72
2022/08/28 04:40:41;;;;;;;8.57;3.60;;;12.20;99.90;;;;;;4992650;28;20042;-72
2022/08/28 04:43:07;;;;;;;8.02;3.47;;;12.20;99.90;;;;;;4993496;28;20042;-72
2022/08/28 04:45:39;;;;;;;10.68;3.55;;;12.10;99.90;;;;;;4987551;28;22505;-72
2022/08/28 04:48:05;;;;;;;9.38;3.40;;;12.10;99.90;;;;;;5007259;28;20045;-72
2022/08/28 04:50:31;;;;;;;10.68;4.07;;;12.00;99.90;;;;;;4994309;28;20042;-72
2022/08/28 04:52:57;;;;;;;8.07;3.90;;;12.00;99.90;;;;;;4992932;28;20487;-72
2022/08/28 04:55:22;;;;;;;8.70;3.90;;;12.00;99.90;;;;;;4993489;28;20046;-72
2022/08/28 04:57:48;;;;;;;12.32;4.50;;;12.00;99.90;;;;;;4988408;28;20073;-72
2022/08/28 05:00:14;;;;;;;10.50;4.30;;;12.00;99.90;;;;;;5008766;28;20144;-72
2022/08/28 05:02:40;;;;;;;7.07;4.07;;;12.00;99.90;;;;;;4986856;28;20042;-72
2022/08/28 05:05:06;;;;;;;15.13;4.28;;;12.00;99.90;;;;;;5007382;28;20049;-72
2022/08/28 05:07:33;;;;;;;9.90;4.57;;;12.10;99.90;;;;;;4991316;28;20038;-72
2022/08/28 05:09:58;;;;;;;12.00;4.20;;;12.00;99.90;;;;;;4991941;28;20041;-72
2022/08/28 05:12:25;;;;;;;11.30;4.40;;;12.00;99.90;;;;;;5010678;28;20092;-72
2022/08/28 05:14:51;;;;;;;12.27;4.38;;;12.00;99.90;;;;;;5007748;28;20041;-72
2022/08/28 05:17:17;;;;;;;10.82;4.28;;;12.00;99.90;;;;;;4972208;28;20060;-72
2022/08/28 05:19:42;;;;;;;14.68;4.40;;;12.00;99.90;;;;;;4990821;28;20129;-72
2022/08/28 05:22:09;;;;;;;13.30;4.82;;;12.00;99.90;;;;;;4987819;28;20096;-72
2022/08/28 05:24:36;;;;;;;14.48;4.43;;;12.10;99.90;;;;;;4991974;28;20045;-72
2022/08/28 05:27:03;;;;;;;8.55;3.95;;;12.00;99.90;;;;;;4989193;28;20080;-72
2022/08/28 05:29:28;;;;;;;8.27;3.58;;;12.10;99.90;;;;;;5004816;28;20043;-72
2022/08/28 05:31:54;;;;;;;6.90;3.47;;;12.10;99.90;;;;;;4989973;28;20052;-72
2022/08/28 05:34:20;;;;;;;9.48;3.80;;;12.10;99.90;;;;;;4988129;28;20048;-71
2022/08/28 05:36:46;;;;;;;8.32;4.00;;;12.10;99.90;;;;;;4987697;28;20042;-73
2022/08/28 05:39:12;;;;;;;8.90;3.80;;;12.10;99.90;;;;;;4992930;28;20084;-72
2022/08/28 05:41:40;;;;;;;9.27;3.80;;;12.10;99.90;;;;;;4988722;28;20046;-72
2022/08/28 05:44:09;;;;;;;10.00;4.15;;;12.20;99.90;;;;;;5008210;28;20128;-72
2022/08/28 05:46:38;;;;;;;11.77;4.00;;;12.20;99.90;;;;;;4983973;28;20034;-72
2022/08/28 05:49:06;;;;;;;10.75;3.88;;;12.30;99.90;;;;;;4989193;28;20038;-72
2022/08/28 05:51:34;;;;;;;12.77;4.30;;;12.30;99.90;;;;;;4989882;28;20042;-72
2022/08/28 05:54:01;;;;;;;12.18;4.22;;;12.40;99.90;;;;;;5005528;28;20033;-72
2022/08/28 05:56:29;;;;;;;10.88;4.30;;;12.50;99.90;;;;;;5006264;28;20045;-72
2022/08/28 05:58:56;;;;;;;11.95;3.95;;;12.60;99.90;;;;;;4987341;28;20159;-72
2022/08/28 06:01:28;;;;;;;13.23;4.30;;;12.70;99.90;;;;;;4985105;28;20057;-72
2022/08/28 06:03:56;;;;;;;15.32;3.88;;;12.80;99.90;;;;;;4987889;28;20049;-72
2022/08/28 06:06:23;;;;;;;6.55;3.67;;;12.90;99.90;;;;;;4986993;28;20038;-72
2022/08/28 06:08:50;;;;;;;11.73;3.95;;;12.90;99.90;;;;;;4987783;28;20052;-72
2022/08/28 06:11:20;;;;;;;10.57;3.70;;;13.00;99.90;;;;;;4984905;28;20096;-72
2022/08/28 06:13:45;;;;;;;9.32;3.47;;;13.10;99.90;;;;;;4985515;28;20378;-72
2022/08/28 06:16:12;;;;;;;13.30;4.35;;;13.20;99.90;;;;;;5000265;28;20044;-72
2022/08/28 06:18:39;;;;;;;7.22;3.38;;;13.20;99.90;;;;;;5002105;28;20041;-72
2022/08/28 06:21:04;;;;;;;11.05;4.00;;;13.20;99.90;;;;;;4996687;28;20034;-72
2022/08/28 06:23:31;;;;;;;10.85;3.72;;;13.30;99.90;;;;;;4983294;28;20045;-72
2022/08/28 06:25:57;;;;;;;14.02;3.80;;;13.40;99.90;;;;;;4987137;28;20092;-72
2022/08/28 06:28:25;;;;;;;10.07;3.45;;;13.40;99.90;;;;;;5004753;28;20041;-72
2022/08/28 06:30:52;;;;;;;6.28;3.13;;;13.50;99.90;;;;;;5004277;28;20049;-72
2022/08/28 06:33:20;;;;;;;9.52;3.30;;;13.50;99.90;;;;;;4988576;28;20048;-72
2022/08/28 06:35:54;;;;;;;8.90;3.15;;;13.60;99.90;;;;;;4990287;28;20488;-72
2022/08/28 06:38:22;;;;;;;8.10;3.10;;;13.70;99.90;;;;;;5007976;28;20093;-71
2022/08/28 06:40:50;;;;;;;11.18;3.53;;;13.80;99.90;;;;;;5006665;28;20038;-72
2022/08/28 06:43:17;;;;;;;8.45;3.30;;;13.90;99.90;;;;;;4988956;28;20034;-72
2022/08/28 06:45:46;;;;;;;9.27;3.38;;;14.00;99.90;;;;;;4981334;28;20038;-72
2022/08/28 06:48:18;;;;;;;13.27;3.35;;;14.00;99.90;;;;;;4981094;28;20050;-73
2022/08/28 06:50:45;;;;;;;;;;;14.20;99.90;;;;;;4986401;28;20042;-71
2022/08/28 06:53:13;;;;;;;10.63;2.85;;;14.40;99.90;;;;;;4989695;28;19917;-70
2022/08/28 06:55:40;;;;;;;10.07;2.80;;;14.50;99.90;;;;;;4985106;28;20076;-71
2022/08/28 06:58:07;;;;;;;9.27;3.13;;;14.60;99.90;;;;;;5003479;28;20540;-70
2022/08/28 07:00:34;;;;;;;7.28;2.50;;;14.70;99.90;;;;;;5002190;28;20048;-71
2022/08/28 07:03:01;;;;;;;8.52;3.17;;;14.80;99.90;;;;;;5001130;28;20432;-71
2022/08/28 07:05:27;;;;;;;8.65;2.70;;;14.90;99.90;;;;;;5002079;28;20049;-71
2022/08/28 07:07:54;;;;;;;10.30;2.80;;;15.00;99.90;;;;;;4984974;28;20042;-72
2022/08/28 07:10:19;;;;;;;11.27;3.38;;;15.10;99.90;;;;;;4989208;28;20473;-72
2022/08/28 07:12:47;;;;;;;9.32;2.83;;;15.20;99.90;;;;;;5010518;28;20037;-72
2022/08/28 07:15:13;;;;;;;11.63;3.05;;;15.30;99.90;;;;;;5008696;28;20097;-72
2022/08/28 07:17:38;;;;;;;10.15;3.10;;;15.40;99.90;;;;;;4994438;28;20453;-72
2022/08/28 07:20:05;;;;;;;10.70;3.05;;;15.50;99.90;;;;;;4992375;28;20045;-73
2022/08/28 07:22:32;;;;;;;9.75;2.70;;;15.60;99.90;;;;;;5013688;28;20382;-72
2022/08/28 07:24:57;;;;;;;9.25;2.75;;;15.80;99.90;;;;;;4987658;28;20414;-72
2022/08/28 07:27:24;;;;;;;9.32;2.50;;;15.90;99.90;;;;;;4973589;28;20099;-73
2022/08/28 07:29:51;;;;;;;12.48;2.67;;;16.00;99.90;;;;;;5005347;28;20073;-72
2022/08/28 07:32:21;;;;;;;10.52;2.63;;;16.10;99.90;;;;;;5005977;28;20033;-72
2022/08/28 07:34:48;;;;;;;7.50;2.50;;;16.20;99.90;;;;;;4972692;28;20038;-72
2022/08/28 07:37:14;;;;;;;10.63;2.50;;;16.40;99.90;;;;;;4990852;28;20046;-72
2022/08/28 07:39:40;;;;;;;9.80;2.58;;;16.50;99.90;;;;;;5003018;28;20133;-73
2022/08/28 07:42:06;;;;;;;9.50;2.58;;;16.60;99.90;;;;;;4992745;28;20136;-73
2022/08/28 07:44:49;;;;;;;7.95;2.17;;;16.80;99.90;;;;;;4992072;28;20133;-73
2022/08/28 07:47:16;;;;;;;7.82;2.10;;;16.90;99.90;;;;;;4991858;28;20101;-73
2022/08/28 07:49:43;;;;;;;8.98;2.30;;;17.00;99.90;;;;;;4997155;28;20468;-73
2022/08/28 07:52:10;;;;;;;9.30;2.95;;;17.20;99.90;;;;;;4994924;28;20050;-73
2022/08/28 07:54:39;;;;;;;10.30;2.38;;;17.30;99.90;;;;;;4979645;28;20469;-74
2022/08/28 07:57:07;;;;;;;7.57;2.15;;;17.40;99.90;;;;;;4987212;28;20463;-74
2022/08/28 07:59:33;;;;;;;7.43;1.98;;;17.50;99.90;;;;;;4994703;28;20528;-74
2022/08/28 08:01:59;;;;;;;8.07;1.98;;;17.70;99.90;;;;;;4995042;28;20096;-74
2022/08/28 08:04:24;;;;;;;5.75;1.90;;;17.80;99.90;;;;;;4992524;28;20073;-74
2022/08/28 08:06:52;;;;;;;6.57;2.03;;;17.90;99.90;;;;;;4993772;28;20053;-74
2022/08/28 08:09:19;;;;;;;7.75;2.20;;;17.90;99.90;;;;;;4994430;28;20514;-74
2022/08/28 08:11:46;;;;;;;6.82;2.05;;;18.10;99.90;;;;;;5010676;28;20377;-74
2022/08/28 08:14:12;;;;;;;5.65;2.00;;;18.20;99.90;;;;;;4996768;28;20397;-74
2022/08/28 08:16:42;;;;;;;8.43;2.10;;;18.30;99.90;;;;;;4995692;28;20501;-74
2022/08/28 08:19:12;;;;;;;6.45;2.20;;;18.40;99.90;;;;;;5002781;28;20386;-74
2022/08/28 08:21:39;;;;;;;10.57;2.20;;;18.60;99.90;;;;;;4988990;28;20460;-74
2022/08/28 08:24:06;;;;;;;9.13;1.73;;;18.70;99.90;;;;;;5012106;28;20034;-74
2022/08/28 08:26:32;;;;;;;7.05;1.85;;;18.80;99.90;;;;;;4989122;28;20056;-74
2022/08/28 08:28:58;;;;;;;7.68;1.73;;;18.90;99.90;;;;;;4984675;28;20620;-75
2022/08/28 08:31:28;;;;;;;7.68;2.10;;;19.00;99.90;;;;;;4987068;28;20037;-74
2022/08/28 08:34:02;;;;;;;6.72;1.80;;;19.00;99.90;;;;;;5004996;28;20476;-74
2022/08/28 08:36:29;;;;;;;7.25;1.90;;;19.00;99.90;;;;;;4991869;28;20066;-74
2022/08/28 08:38:56;;;;;;;7.22;1.77;;;19.00;99.90;;;;;;4993508;28;20041;-74
2022/08/28 08:41:50;;;;;;;5.00;1.63;;;19.10;99.90;;;;;;4994423;28;20405;-74
2022/08/28 08:44:26;;;;;;;7.38;1.92;;;19.20;99.90;;;;;;4989146;28;20384;-74
2022/08/28 08:47:02;;;;;;;4.55;1.65;;;19.40;99.90;;;;;;5010241;28;20430;-73
2022/08/28 08:49:35;;;;;;;9.07;2.17;;;19.50;99.90;;;;;;5011020;28;20389;-73
2022/08/28 08:52:23;;;;;;;6.25;1.88;;;19.70;99.90;;;;;;5000949;28;20077;-73
2022/08/28 08:55:13;;;;;;;5.07;1.90;;;19.90;99.90;;;;;;4988322;28;20382;-73
2022/08/28 08:57:40;;;;;;;7.30;2.30;;;20.20;99.90;;;;;;4985794;28;20112;-73
2022/08/28 09:00:09;;;;;;;4.40;1.65;;;20.40;99.90;;;;;;4989035;28;20037;-72
2022/08/28 09:03:03;;;;;;;12.00;2.10;;;20.60;99.90;;;;;;4998333;28;20049;-73
2022/08/28 09:05:45;;;;;;;5.53;1.63;;;20.60;99.90;;;;;;4988784;28;20038;-73
2022/08/28 09:08:18;;;;;;;5.75;1.80;;;20.70;99.90;;;;;;4970809;28;20029;-73
2022/08/28 09:10:58;;;;;;;2.75;1.50;;;20.80;99.90;;;;;;4986101;28;20037;-73
2022/08/28 09:13:44;;;;;;;5.38;1.77;;;20.90;99.90;;;;;;5005329;28;20033;-73
2022/08/28 09:16:26;;;;;;;6.57;1.73;;;20.90;99.90;;;;;;5000456;28;20034;-72
2022/08/28 09:18:55;;;;;;;4.63;1.70;;;20.80;99.40;;;;;;4983827;28;20041;-72
2022/08/28 09:21:27;;;;;;;7.85;1.70;;;20.60;99.90;;;;;;5003316;28;20076;-72
2022/08/28 09:23:54;;;;;;;7.65;1.60;;;20.60;99.50;;;;;;4983712;28;20255;-72
2022/08/28 09:26:22;;;;;;;7.63;1.75;;;20.60;99.90;;;;;;4983276;28;20092;-72
2022/08/28 09:29:14;;;;;;;7.63;2.10;;;20.70;99.90;;;;;;5003474;28;20089;-72
2022/08/28 09:31:41;;;;;;;3.87;1.40;;;20.90;99.60;;;;;;4986164;28;20053;-71
2022/08/28 09:34:18;;;;;;;4.40;1.70;;;21.10;99.40;;;;;;5008576;28;20304;-73
2022/08/28 09:36:44;;;;;;;7.20;2.00;;;21.30;99.40;;;;;;4990601;28;20422;-72
2022/08/28 09:39:18;;;;;;;4.68;1.63;;;21.40;99.10;;;;;;4991380;28;20038;-72
2022/08/28 09:45:04;;;;;;;3.25;1.75;;;21.50;97.50;;;;;;4983439;28;20428;-72
2022/08/28 09:47:59;;;;;;;5.90;1.65;;;21.40;97.40;;;;;;5004078;28;20050;-73
2022/08/28 09:50:34;;;;;;;4.07;1.73;;;21.50;96.60;;;;;;4974762;28;20087;-72
2022/08/28 09:53:10;;;;;;;4.32;1.55;;;21.60;96.90;;;;;;5008372;28;20033;-73
2022/08/28 09:55:49;;;;;;;4.80;1.60;;;21.70;96.80;;;;;;4985425;28;20034;-73
2022/08/28 09:58:15;;;;;;;5.18;1.65;;;21.90;96.50;;;;;;5008162;28;20041;-73
2022/08/28 10:00:54;;;;;;;5.47;1.80;;;22.20;96.10;;;;;;4988377;28;20041;-73
2022/08/28 10:03:32;;;;;;;7.20;1.55;;;22.30;94.90;;;;;;5003391;28;20089;-73
2022/08/28 10:06:05;;;;;;;7.07;1.52;;;22.40;95.20;;;;;;5005099;28;20041;-73
2022/08/28 10:08:56;;;;;;;4.78;1.83;;;22.60;94.70;;;;;;4986228;28;20092;-73
2022/08/28 10:11:37;;;;;;;5.68;1.92;;;22.80;93.20;;;;;;4965034;28;20034;-73
2022/08/28 10:14:28;;;;;;;4.70;1.80;;;23.00;93.00;;;;;;4999410;28;20037;-73
2022/08/28 10:17:01;;;;;;;5.53;1.98;;;23.10;92.10;;;;;;4999757;28;20049;-73
2022/08/28 10:19:52;;;;;;;5.22;1.67;;;23.30;91.30;;;;;;4983989;28;20054;-71
2022/08/28 10:22:39;;;;;;;3.75;1.63;;;23.30;90.70;;;;;;5001501;28;20132;-71
2022/08/28 10:25:17;;;;;;;6.95;2.00;;;23.40;89.40;;;;;;5005893;28;20041;-71
2022/08/28 10:27:48;;;;;;;7.70;2.00;;;23.40;90.60;;;;;;4990098;28;20044;-71
2022/08/28 10:30:20;;;;;;;5.07;1.60;;;23.30;90.40;;;;;;4984400;28;20034;-71
2022/08/28 10:33:24;;;;;;;5.53;1.80;;;23.10;89.10;;;;;;4985712;28;20552;-74
2022/08/28 10:36:15;;;;;;;4.75;1.88;;;22.70;88.70;;;;;;4980764;28;20046;-74
2022/08/28 10:38:48;;;;;;;5.15;2.10;;;22.50;90.20;;;;;;4979214;28;20161;-74
2022/08/28 10:41:36;;;;;;;9.15;2.10;;;22.50;91.00;;;;;;4986198;28;20054;-74
2022/08/28 10:44:04;;;;;;;6.43;1.85;;;22.70;90.60;;;;;;4986264;28;20042;-74
2022/08/28 10:46:41;;;;;;;7.15;1.95;;;22.90;90.30;;;;;;5000767;28;20034;-74
2022/08/28 10:49:42;;;;;;;9.98;2.30;;;23.10;88.80;;;;;;4982401;28;20049;-74
2022/08/28 10:52:15;;;;;;;5.15;1.67;;;23.30;90.00;;;;;;4980790;28;20050;-74
2022/08/28 10:54:55;;;;;;;3.38;1.80;;;23.50;88.60;;;;;;4982292;28;20046;-74
2022/08/28 10:57:25;;;;;;;3.42;1.70;;;23.80;87.80;;;;;;5000968;28;20038;-74
2022/08/28 10:59:52;;;;;;;3.25;1.80;;;24.00;86.20;;;;;;4967595;28;20516;-74
2022/08/28 11:02:21;;;;;;;4.07;1.77;;;24.10;83.30;;;;;;4978996;28;20046;-73
2022/08/28 11:04:48;;;;;;;4.10;1.85;;;24.20;82.50;;;;;;5001171;28;20062;-73
2022/08/28 11:07:40;;;;;;;6.35;1.85;;;24.30;83.20;;;;;;4985885;28;20049;-72
2022/08/28 11:10:35;;;;;;;6.68;1.70;;;24.20;81.60;;;;;;4989027;28;20061;-72
2022/08/28 11:13:05;;;;;;;7.00;1.70;;;23.90;81.10;;;;;;4985728;28;21706;-73
2022/08/28 11:15:30;;;;;;;8.00;1.98;;;23.70;81.60;;;;;;5009194;28;20038;-73
2022/08/28 11:18:16;;;;;;;7.82;2.10;;;23.50;82.20;;;;;;4988070;28;20135;-73
2022/08/28 11:21:07;;;;;;;4.72;1.90;;;23.30;82.30;;;;;;4990328;28;20045;-72
2022/08/28 11:23:44;;;;;;;10.57;1.88;;;23.30;83.30;;;;;;4992750;28;20042;-73
2022/08/28 11:26:13;;;;;;;5.35;1.63;;;23.50;84.00;;;;;;4990416;28;20128;-73
2022/08/28 11:28:46;;;;;;;3.92;1.55;;;23.90;84.40;;;;;;4996337;28;20038;-72
2022/08/28 11:31:11;;;;;;;9.38;2.08;;;24.30;81.50;;;;;;4991150;28;20042;-73
2022/08/28 11:33:51;;;;;;;4.72;2.00;;;24.40;80.50;;;;;;4973518;28;20041;-72
2022/08/28 11:36:28;;;;;;;5.25;1.95;;;24.20;80.70;;;;;;4989604;28;20048;-72
2022/08/28 11:38:54;;;;;;;7.95;2.38;;;23.90;79.40;;;;;;4990257;28;20052;-72
2022/08/28 11:41:30;;;;;;;9.38;1.92;;;23.70;79.80;;;;;;4984980;28;20081;-72
2022/08/28 11:44:13;;;;;;;5.45;1.83;;;23.50;81.30;;;;;;4986823;28;20042;-72
2022/08/28 11:46:44;;;;;;;7.55;2.10;;;23.30;81.20;;;;;;4993700;28;20046;-72
2022/08/28 11:49:23;;;;;;;7.45;2.10;;;23.40;82.20;;;;;;5004304;28;20096;-73
2022/08/28 11:51:56;;;;;;;4.47;1.70;;;23.50;81.70;;;;;;4990180;28;20096;-73
2022/08/28 11:54:59;;;;;;;5.18;2.13;;;23.60;82.60;;;;;;4986488;28;20042;-72
2022/08/28 11:57:48;;;;;;;7.05;1.70;;;23.90;81.70;;;;;;4992896;28;20116;-72
2022/08/28 12:00:39;;;;;;;5.93;1.67;;;24.30;80.40;;;;;;4990162;28;20042;-72
2022/08/28 12:03:23;;;;;;;4.28;2.00;;;24.30;78.70;;;;;;4994697;28;20069;-72
2022/08/28 12:05:53;;;;;;;5.63;1.70;;;24.10;79.30;;;;;;4997027;28;20069;-72
2022/08/28 12:08:47;;;;;;;4.97;1.90;;;23.90;77.10;;;;;;4996815;28;20037;-72
2022/08/28 12:11:49;;;;;;;5.45;2.00;;;23.60;76.40;;;;;;4974801;28;20065;-72
2022/08/28 12:14:23;;;;;;;6.63;1.90;;;23.30;78.50;;;;;;4937727;29;20182;-71
2022/08/28 12:16:58;;;;;;;6.35;2.10;;;23.20;77.50;;;;;;4984320;28;20054;-71
2022/08/28 12:19:42;;;;;;;4.75;1.65;;;23.00;77.30;;;;;;5001344;28;20042;-72
2022/08/28 12:22:18;;;;;;;4.28;1.52;;;23.00;79.30;;;;;;5004003;28;20168;-73
2022/08/28 12:24:56;;;;;;;7.20;2.00;;;23.30;79.50;;;;;;5013259;28;20125;-71
2022/08/28 12:27:22;;;;;;;4.75;1.70;;;23.70;78.60;;;;;;4968908;28;20053;-72
2022/08/28 12:29:51;;;;;;;5.82;1.67;;;23.90;77.20;;;;;;4987505;28;20121;-73
2022/08/28 12:32:36;;;;;;;3.40;1.90;;;23.80;76.20;;;;;;4988340;28;20073;-73
2022/08/28 12:35:02;;;;;;;5.10;1.70;;;23.80;74.30;;;;;;4974182;28;20038;-73
2022/08/28 12:37:37;;;;;;;6.43;2.05;;;23.80;75.70;;;;;;4988950;28;20034;-72
2022/08/28 12:40:07;;;;;;;4.13;1.80;;;24.10;76.60;;;;;;4988148;28;20408;-73
2022/08/28 12:42:37;;;;;;;6.00;1.70;;;24.50;74.40;;;;;;4992846;28;20046;-73
2022/08/28 12:45:06;;;;;;;4.90;1.45;;;24.90;74.30;;;;;;4993186;28;20054;-73
2022/08/28 12:47:34;;;;;;;2.85;1.77;;;25.30;71.10;;;;;;4982259;28;20183;-71
2022/08/28 12:50:22;;;;;;;5.38;1.80;;;25.30;71.20;;;;;;5003301;28;20034;-73
2022/08/28 12:52:51;;;;;;;5.82;2.03;;;24.90;70.70;;;;;;4995429;28;20121;-74
2022/08/28 12:55:18;;;;;;;5.72;1.77;;;24.40;70.90;;;;;;4983121;28;20038;-73
2022/08/28 12:57:45;;;;;;;4.22;1.75;;;24.10;71.80;;;;;;4988300;28;20099;-73
2022/08/28 13:00:20;;;;;;;3.83;1.52;;;24.20;73.00;;;;;;4994458;28;20107;-72
2022/08/28 13:02:46;;;;;;;5.50;1.92;;;24.50;71.10;;;;;;4993310;28;20040;-73
2022/08/28 13:05:33;;;;;;;4.85;1.80;;;24.50;70.90;;;;;;4992019;28;20053;-72
2022/08/28 13:08:08;;;;;;;3.65;1.98;;;24.30;72.80;;;;;;4995818;28;20042;-72
2022/08/28 13:10:39;;;;;;;7.70;1.75;;;24.30;72.20;;;;;;4984927;28;20124;-72